Sierra Nevada Aquatic Research Lab (SNARL) Reserve, California Weather observations

Data are for 10 minute period ending at time listed.
 Day   Time   Solar   Ave.   Ave.  Ave.  Vector  Max.   Baro.   Total    
  of    of     Rad.   Air    Rel.  Wind   Wind   Wind  Press.  Precip.   
Year   Day            Temp.  Hum.  Speed  Dir.   Gust                    
2016   (PST)  Kw/m2    F      %     mph   deg.    mph    mb.     in.     
-------------------------------------------------------------------------
 206    3:00   0.00   43.3    40    1.8    39     4.2   787.8    0.00 
 206    3:10   0.00   41.6    43    1.9    88     3.9   787.7    0.00 
 206    3:20   0.00   41.6    46    0.5   187     2.0   787.7    0.00 
 206    3:30   0.00   41.2    44    2.0   109     3.6   787.7    0.00 
 206    3:40   0.00   42.2    41    1.5   229     4.1   787.7    0.00 
 206    3:50   0.00   41.3    43    1.7   244     3.4   787.7    0.00 
 206    4:00   0.00   40.9    45    0.2    32     1.5   787.7    0.00 
 206    4:10   0.00   40.0    40    2.1   228     3.6   787.7    0.00 
 206    4:20   0.00   40.4    41    1.2   213     2.6   787.7    0.00 
 206    4:30   0.00   41.4    47    1.4   320     3.7   787.7    0.00 
 206    4:40   0.00   39.7    44    1.7   123     2.7   787.8    0.00 
 206    4:50   0.00   40.4    43    1.4   246     3.7   787.8    0.00 
 206    5:00   0.00   40.9    44    1.2   239     3.4   787.9    0.00 
 206    5:10   0.00   39.7    44    1.4   199     2.8   788.0    0.00 
 206    5:20   0.01   39.6    50    0.8   250     2.0   788.1    0.00 
 206    5:30   0.01   41.0    54    0.4   217     2.1   788.1    0.00 
 206    5:40   0.02   42.5    52    0.6   135     1.8   788.1    0.00 
 206    5:50   0.09   44.9    44    1.8    96     2.6   788.1    0.00 
 206    6:00   0.15   48.4    42    0.8    87     2.2   788.1    0.00 
 206    6:10   0.18   52.7    40    0.2    88     1.7   788.2    0.00 
 206    6:20   0.22   58.1    32    0.3    83     1.5   788.3    0.00 
 206    6:30   0.25   62.4    26    0.0     0     0.0   788.4    0.00 
 206    6:40   0.29   64.9    25    0.9    75     2.3   788.4    0.00 
 206    6:50   0.32   62.8    29    1.7    66     3.6   788.3    0.00 
 206    7:00   0.36   62.7    29    1.2    56     2.5   788.3    0.00 
 206    7:10   0.40   64.0    27    1.8    58     2.9   788.3    0.00 
 206    7:20   0.43   66.5    26    1.1    67     2.6   788.2    0.00 
 206    7:30   0.47   67.4    24    2.3    73     3.3   788.2    0.00 
 206    7:40   0.50   68.4    24    1.9    75     3.6   788.1    0.00 
 206    7:50   0.53   69.0    24    1.8    77     3.4   788.0    0.00 
 206    8:00   0.57   70.4    22    2.3    72     3.7   788.0    0.00 
 206    8:10   0.60   71.2    23    2.5    70     4.7   787.9    0.00 
 206    8:20   0.64   72.4    22    2.3    60     4.2   787.9    0.00 
 206    8:30   0.67   73.3    23    3.4    67     6.8   787.9    0.00 
 206    8:40   0.70   74.1    24    3.0    64     7.4   787.8    0.00 
 206    8:50   0.68   75.5    21    2.3    55     4.8   787.9    0.00 
 206    9:00   0.76   77.0    19    3.2    75     5.8   787.9    0.00 
 206    9:10   0.79   78.2    16    2.2    83     4.7   787.9    0.00 
 206    9:20   0.81   79.5    13    2.8    87     6.1   787.9    0.00 
 206    9:30   0.84   79.7    13    4.1    64     9.1   787.8    0.00 
 206    9:40   0.86   79.8    13    3.4    57     7.8   787.8    0.00 
 206    9:50   0.88   80.9    13    3.8    68     8.8   787.8    0.00 
 206   10:00   0.90   81.0    13    4.0    75    10.0   787.8    0.00 
 206   10:10   0.92   81.2    12    6.5    87    11.8   787.8    0.00 
 206   10:20   0.94   81.6    12    7.3    88    12.2   787.8    0.00 
 206   10:30   0.95   82.0    12    6.2    78    13.4   787.8    0.00 
 206   10:40   0.97   83.2    13    6.8    80    12.5   787.6    0.00 
 206   10:50   0.98   83.3    11    6.2    73    12.9   787.6    0.00 
 206   11:00   0.99   83.6    10    3.9    73     9.9   787.5    0.00 
 206   11:10   1.00   85.0    11    6.4    82    15.9   787.4    0.00 
 206   11:20   1.01   85.4    10    7.2   109    13.1   787.4    0.00 
 206   11:30   1.01   86.5     8    4.6   272    13.0   787.4    0.00 
 206   11:40   1.01   86.5     8   10.0   266    26.1   787.2    0.00 
 206   11:50   1.02   86.8     8    9.2   249    20.8   787.3    0.00 
 206   12:00   1.01   86.9     8    8.4   239    32.7   787.3    0.00 
 206   12:10   1.02   86.9     7   15.0   236    28.4   787.3    0.00 
 206   12:20   1.01   87.3     8   12.4   239    25.7   787.2    0.00 
 206   12:30   1.02   86.9     8   12.7   236    27.3   787.2    0.00 
 206   12:40   1.01   87.5     8   11.5   252    22.7   787.2    0.00 
 206   12:50   1.01   87.5     8   14.2   237    26.7   787.2    0.00 
 206   13:00   1.00   87.7     8   13.4   237    25.6   787.3    0.00 
 206   13:10   0.99   86.9     9   12.9   256    25.1   787.2    0.00 
 206   13:20   0.98   87.6     8   13.8   217    24.4   787.3    0.00 
 206   13:30   0.97   87.4     9   12.4   223    23.9   787.3    0.00 
 206   13:40   0.96   87.0     9   17.4   228    29.6   787.3    0.00 
 206   13:50   0.94   86.6     9   15.5   214    25.4   787.4    0.00 
 206   14:00   0.92   87.7     9   12.0   226    25.8   787.3    0.00 
 206   14:10   0.90   87.0     9   14.3   213    30.0   787.4    0.00 
 206   14:20   0.89   86.6     9   10.6   209    21.9   787.4    0.00 
 206   14:30   0.86   86.6     9   14.6   213    25.6   787.4    0.00 
 206   14:40   0.84   86.5     9   11.6   218    24.8   787.4    0.00 
 206   14:50   0.81   85.9     9   13.6   229    29.2   787.3    0.00 
 206   15:00   0.79   85.6     9   13.0   212    25.4   787.3    0.00 
 206   15:10   0.76   86.1    10    6.8   247    18.0   787.3    0.00 
 206   15:20   0.73   85.6    10   10.9   238    22.9   787.3    0.00 
 206   15:30   0.69   85.4    11    9.0   211    21.5   787.3    0.00 
 206   15:40   0.67   85.2    10   13.0   231    24.8   787.3    0.00 
 206   15:50   0.64   84.8    11    6.4   230    14.7   787.4    0.00 
 206   16:00   0.60   84.5    11    7.8   254    22.4   787.3    0.00 
 206   16:10   0.57   84.3    11    9.7   225    25.8   787.3    0.00 
 206   16:20   0.54   83.7    11   12.4   212    29.1   787.4    0.00 
 206   16:30   0.50   83.5    11   14.0   228    25.6   787.3    0.00 
 206   16:40   0.46   83.3    11   12.2   252    25.5   787.2    0.00 
 206   16:50   0.41   82.7    11   14.9   206    31.7   787.3    0.00 
 206   17:00   0.39   82.7    11   13.1   226    27.1   787.3    0.00 
 206   17:10   0.36   82.8    11   12.7   213    27.5   787.3    0.00 
 206   17:20   0.32   82.3    11   15.1   227    25.9   787.4    0.00 
 206   17:30   0.29   82.0    11   10.5   237    22.1   787.4    0.00 
 206   17:40   0.26   82.0    11    9.3   234    18.6   787.4    0.00 
 206   17:50   0.21   81.9    12    6.6   245    14.2   787.4    0.00 
 206   18:00   0.17   81.5    13    6.4   250    12.0   787.6    0.00 
 206   18:10   0.14   80.2    14    8.4   233    26.7   787.6    0.00 
 206   18:20   0.09   79.2    14    8.5   265    14.5   787.6    0.00 
 206   18:30   0.08   76.9    16    9.6   288    18.7   787.7    0.00 
 206   18:40   0.05   76.1    16    8.0   258    16.8   787.8    0.00 
 206   18:50   0.03   74.9    17    7.7   247    14.8   787.8    0.00 
 206   19:00   0.00   73.0    18    8.7   272    15.7   787.8    0.00 
 206   19:10   0.00   72.4    19    7.8   290    15.3   787.7    0.00 
 206   19:20   0.00   71.8    20    4.5   292     8.2   787.7    0.00 
 206   19:30   0.00   67.9    22    2.5   176     5.2   787.7    0.00 
 206   19:40   0.00   65.2    24    3.2   109     7.3   787.8    0.00 
 206   19:50   0.00   65.8    25    3.2   285     5.4   787.7    0.00 
 206   20:00   0.00   63.1    24    2.4   159     4.2   787.7    0.00 
 206   20:10   0.00   61.1    28    2.3   343     5.2   787.7    0.00 
 206   20:20   0.00   59.2    28    3.0   218     5.6   787.8    0.00 
 206   20:30   0.00   59.4    28    2.8   242     6.4   787.9    0.00 
 206   20:40   0.00   59.5    30    1.7    72     4.2   788.0    0.00 
 206   20:50   0.00   56.8    30    2.0   170     4.3   788.1    0.00 
 206   21:00   0.00   56.9    31    3.0   254     5.8   788.2    0.00 
 206   21:10   0.00   57.3    32    2.8   229     4.6   788.2    0.00 
 206   21:20   0.00   57.2    33    2.5   234     5.1   788.2    0.00 
 206   21:30   0.00   56.9    33    2.7   260     6.0   788.2    0.00 
 206   21:40   0.00   56.4    32    3.1   192     6.2   788.2    0.00 
 206   21:50   0.00   57.3    32    3.1   201     6.9   788.2    0.00 
 206   22:00   0.00   57.8    34    1.3   194     5.1   788.3    0.00 
 206   22:10   0.00   55.9    34    2.0   214     5.8   788.3    0.00 
 206   22:20   0.00   55.3    34    2.9   256     7.4   788.3    0.00 
 206   22:30   0.00   54.9    34    1.5   155     3.8   788.3    0.00 
 206   22:40   0.00   53.0    35    2.2   256     4.1   788.3    0.00 
 206   22:50   0.00   51.6    36    3.2   208     6.2   788.3    0.00 
 206   23:00   0.00   53.5    34    3.0   297     5.2   788.4    0.00 
 206   23:10   0.00   55.1    33    2.2   126     4.0   788.5    0.00 
 206   23:20   0.00   53.4    34    3.3   242     7.0   788.6    0.00 
 206   23:30   0.00   53.8    32    3.3   213     6.7   788.7    0.00 
 206   23:40   0.00   53.3    33    3.5   249     6.9   788.6    0.00 
 206   23:50   0.00   54.0    31    3.4   228     5.3   788.6    0.00 
 207    0:00   0.00   54.2    32    3.8   248     7.2   788.7    0.00 
 207    0:10   0.00   53.2    32    3.8   227     7.3   788.7    0.00 
 207    0:20   0.00   54.2    32    5.4   229     8.0   788.7    0.00 
 207    0:30   0.00   55.3    33    1.7   253     4.2   788.7    0.00 
 207    0:40   0.00   53.9    35    1.3   332     3.9   788.7    0.00 
 207    0:50   0.00   52.0    38    3.1   356     5.4   788.7    0.00 
 207    1:00   0.00   53.0    36    3.9   305     6.4   788.7    0.00 
 207    1:10   0.00   49.8    39    2.7   265     5.6   788.6    0.00 
 207    1:20   0.00   48.2    42    2.3   281     5.6   788.6    0.00 
 207    1:30   0.00   46.9    43    1.8   285     4.1   788.6    0.00 
 207    1:40   0.00   48.4    43    2.4   334     5.3   788.6    0.00 
 207    1:50   0.00   49.5    41    2.3   333     5.4   788.6    0.00 
 207    2:00   0.00   47.9    44    1.8   293     4.8   788.6    0.00 
 207    2:10   0.00   46.6    47    1.4   335     4.7   788.6    0.00 
 207    2:20   0.00   45.3    46    1.1   294     3.8   788.7    0.00 
 207    2:30   0.00   44.6    46    1.5   168     4.2   788.7    0.00 
 207    2:40   0.00   45.2    46    1.8   254     5.0   788.8    0.00 
 207    2:50   0.00   45.5    46    2.2   234     3.4   788.8    0.00 

Return to SNARL Reserve graphs page.


Western Regional Climate Center,wrcc@dri.edu